Latest Weather Observations for Snowtown

IDS60801

Issued at 10:05 am CDT Sunday 23 November 2014 (issued every 30 minutes, with the page automatically refreshed every 10 minutes)

About weather observations | Map of weather stations | Latest weather observations for SA | Other Formats
Station Details ID: 021133 Name: RAYVILLE PARK Lat: -33.77 Lon: 138.22 Height: 109.1 m
Data from the previous 72 hours. | See also: Recent months at Snowtown
Date/Time
CDT
Temp
°C
App
Temp
°C
Dew
Point
Rel
Hum
%
Delta-T
°C
Wind Press
QNH
hPa
Press
MSL
hPa
Rain
since 9 am
mm
Dir
 
Spd
km/h
Gust
km/h
Spd
kts
Gust
kts
23/10:00am 23.6 22.6 10.3 43 7.4 N 6 11 3 6 1012.0 1011.8 0.0
23/09:30am 22.1 21.3 11.8 52 5.8 ENE 7 11 4 6 1012.1 1011.9 0.0
23/09:00am 20.3 19.8 12.0 59 4.7 ENE 6 11 3 6 1012.3 1012.1 0.0
23/08:30am 18.1 17.6 11.9 67 3.4 ENE 6 9 3 5 1012.5 1012.3 0.0
23/08:00am 17.3 17.7 12.6 74 2.6 SW 2 7 1 4 1012.6 1012.4 0.0
23/07:30am 16.1 17.3 13.9 87 1.2 CALM 0 0 0 0 1012.4 1012.2 0.0
23/07:00am 14.1 13.7 13.0 93 0.6 SW 7 9 4 5 1012.3 1012.1 0.0
23/06:30am 11.6 9.5 11.1 97 0.3 SW 13 15 7 8 1012.0 1011.8 0.0
23/06:00am 10.6 10.7 10.0 96 0.3 WSW 0 0 0 0 1012.4 1012.2 0.0
23/05:30am 10.9 11.0 10.1 95 0.4 CALM 0 0 0 0 1012.6 1012.4 0.0
23/05:00am 11.2 11.4 10.4 95 0.4 CALM 0 0 0 0 1012.3 1012.1 0.0
23/04:30am 11.4 9.9 10.6 95 0.4 WSW 9 9 5 5 1012.4 1012.2 0.0
23/04:00am 11.4 9.9 10.6 95 0.4 W 9 9 5 5 1012.7 1012.5 0.0
23/03:30am 11.0 9.3 9.9 93 0.6 N 9 11 5 6 1012.6 1012.4 0.0
23/03:00am 11.6 9.9 10.0 90 0.8 SW 9 9 5 5 1012.3 1012.1 0.0
23/02:30am 12.4 10.4 10.3 87 1.1 SW 11 13 6 7 1012.3 1012.1 0.0
23/02:00am 13.0 11.5 10.5 85 1.3 S 9 11 5 6 1012.4 1012.2 0.0
23/01:30am 12.7 11.1 10.2 85 1.3 ESE 9 11 5 6 1012.4 1012.2 0.0
23/01:00am 12.5 11.3 9.5 82 1.5 WSW 6 9 3 5 1012.6 1012.4 0.0
23/12:30am 15.1 13.9 11.5 79 1.9 SSW 9 13 5 7 1012.9 1012.6 0.0
23/12:00am 16.1 13.8 11.9 76 2.3 SSW 15 20 8 11 1012.9 1012.6 0.0
 
Date/Time
CDT
Temp
°C
App
Temp
°C
Dew
Point
Rel
Hum
%
Delta-T
°C
Wind Press
QNH
hPa
Press
MSL
hPa
Rain
since 9 am
mm
Dir
 
Spd
km/h
Gust
km/h
Spd
kts
Gust
kts
22/11:30pm 16.3 15.2 13.0 81 1.8 S 11 15 6 8 1012.9 1012.6 0.0
22/11:00pm 17.0 16.0 13.5 80 2.0 SSE 11 17 6 9 1012.9 1012.6 0.0
22/10:30pm 17.9 16.1 13.2 74 2.7 SSE 15 20 8 11 1012.6 1012.4 0.0
22/10:00pm 19.1 16.1 12.4 65 3.8 S 20 30 11 16 1012.0 1011.8 0.0
22/09:30pm 19.9 16.1 12.4 62 4.2 S 24 33 13 18 1011.3 1011.0 0.0
22/09:00pm 20.6 16.7 14.5 68 3.6 S 28 41 15 22 1010.5 1010.2 0.0
22/08:30pm 21.9 19.0 15.0 65 4.1 SSW 24 33 13 18 1010.1 1009.8 0.0
22/08:00pm 23.9 20.1 12.5 49 6.6 S 24 35 13 19 1009.6 1009.3 0.0
22/07:30pm 25.2 21.4 13.7 49 6.8 S 26 39 14 21 1008.9 1008.6 0.0
22/07:00pm 26.5 23.0 14.6 48 7.2 S 26 35 14 19 1008.2 1007.9 0.0
22/06:30pm 27.5 22.8 14.8 45 7.7 S 33 44 18 24 1007.5 1007.2 0.0
22/06:00pm 29.8 25.2 13.5 36 9.8 SSW 30 41 16 22 1007.0 1006.7 0.0
22/05:30pm 31.7 26.0 11.0 28 12.1 SW 32 44 17 24 1006.4 1006.1 0.0
22/05:00pm 33.1 26.8 11.0 26 12.9 SW 35 44 19 24 1005.8 1005.5 0.0
22/04:30pm 33.5 28.5 10.8 25 13.3 SSW 28 43 15 23 1005.3 1005.0 0.0
22/04:00pm 34.4 28.6 10.9 24 13.8 SSW 32 46 17 25 1005.2 1004.9 0.0
22/03:52pm 34.7 28.8 10.5 23 14.1 S 32 46 17 25 1005.0 1004.7 0.0
22/03:30pm 37.0 33.1 9.6 19 16.0 W 20 28 11 15 1004.9 1004.6 0.0
22/03:00pm 35.9 32.6 9.4 20 15.4 WSW 17 26 9 14 1005.1 1004.8 0.0
22/02:30pm 36.0 32.5 10.9 22 14.9 WSW 20 24 11 13 1005.3 1005.0 0.0
22/02:00pm 34.3 30.6 10.2 23 14.0 SSW 20 33 11 18 1005.6 1005.3 0.0
22/01:30pm 34.5 30.3 11.0 24 13.9 S 24 39 13 21 1005.9 1005.6 0.0
22/01:00pm 34.9 31.5 10.7 23 14.2 SW 19 30 10 16 1006.0 1005.7 0.0
22/12:30pm 33.7 30.4 9.7 23 13.8 SSW 17 26 9 14 1005.8 1005.5 0.0
22/12:00pm 33.0 30.9 9.7 24 13.4 S 11 17 6 9 1006.3 1006.0 0.0
22/11:30am 32.1 28.1 9.0 24 13.1 SSW 20 28 11 15 1006.7 1006.4 0.0
22/11:00am 31.2 27.0 8.2 24 12.8 S 20 33 11 18 1006.6 1006.3 0.0
22/10:30am 31.1 27.1 8.2 24 12.7 S 19 26 10 14 1006.5 1006.2 0.0
22/10:00am 29.7 25.1 5.7 22 12.7 S 19 24 10 13 1007.1 1006.8 0.0
22/09:30am 29.1 26.3 5.2 22 12.5 S 9 13 5 7 1007.8 1007.5 0.0
22/09:00am 28.4 26.2 5.3 23 12.0 NNW 6 15 3 8 1007.8 1007.5 0.0
22/08:30am 27.5 24.9 6.3 26 11.2 ESE 9 11 5 6 1007.3 1007.0 0.0
22/08:00am 25.3 23.4 6.5 30 9.8 S 6 13 3 7 1006.9 1006.6 0.0
22/07:30am 22.5 21.5 7.5 38 7.9 S 2 7 1 4 1007.2 1006.9 0.0
22/07:00am 19.1 18.2 9.3 53 5.2 S 4 7 2 4 1006.8 1006.5 0.0
22/06:30am 17.8 16.3 8.4 54 4.9 S 6 7 3 4 1006.5 1006.2 0.0
22/06:00am 19.3 15.5 7.7 47 6.0 S 17 20 9 11 1006.7 1006.4 0.0
22/05:30am 17.2 15.2 10.1 63 3.8 NNE 11 13 6 7 1006.0 1005.7 0.0
22/05:00am 16.2 14.0 9.2 63 3.6 NNE 11 15 6 8 1005.8 1005.5 0.0
22/04:30am 16.2 13.1 8.7 61 3.9 N 15 17 8 9 1006.0 1005.7 0.0
22/04:00am 15.4 13.2 7.9 61 3.8 N 9 13 5 7 1006.4 1006.1 0.0
22/03:30am 17.9 14.0 7.0 49 5.5 N 17 20 9 11 1006.4 1006.1 0.0
22/03:00am 15.9 12.5 7.7 58 4.1 N 15 19 8 10 1006.6 1006.3 0.0
22/02:30am 17.6 13.3 7.1 50 5.3 N 19 26 10 14 1007.0 1006.7 0.0
22/02:00am 18.9 14.7 7.4 47 5.9 N 19 22 10 12 1007.7 1007.4 0.0
22/01:30am 18.7 14.4 7.8 49 5.6 N 20 22 11 12 1008.1 1007.8 0.0
22/01:00am 18.0 13.9 8.8 55 4.8 N 20 22 11 12 1008.5 1008.2 0.0
22/12:30am 17.2 13.9 9.6 61 4.0 NNW 17 19 9 10 1009.2 1008.9 0.0
22/12:00am 15.9 13.2 10.2 69 3.0 NNW 15 19 8 10 1009.6 1009.3 0.0
 
Date/Time
CDT
Temp
°C
App
Temp
°C
Dew
Point
Rel
Hum
%
Delta-T
°C
Wind Press
QNH
hPa
Press
MSL
hPa
Rain
since 9 am
mm
Dir
 
Spd
km/h
Gust
km/h
Spd
kts
Gust
kts
21/11:30pm 14.8 13.8 11.0 78 2.0 WSW 7 11 4 6 1009.7 1009.4 0.0
21/11:00pm 17.1 15.7 10.9 67 3.3 WSW 9 13 5 7 1010.0 1009.7 0.0
21/10:30pm 17.7 16.1 11.7 68 3.3 WSW 11 13 6 7 1010.1 1009.8 0.0
21/10:00pm 17.7 15.3 11.5 67 3.4 SW 15 17 8 9 1010.1 1009.8 0.0
21/09:30pm 17.6 16.0 11.6 68 3.3 SW 11 13 6 7 1010.2 1009.9 0.0
21/09:00pm 18.8 17.3 11.9 64 3.8 SSW 11 17 6 9 1010.3 1010.0 0.0
21/08:30pm 19.3 18.8 12.8 66 3.7 NNE 7 9 4 5 1010.0 1009.7 0.0
21/08:26pm 19.9 19.5 12.9 64 4.0 NNE 7 9 4 5 1010.0 1009.7 0.0
21/08:00pm 24.9 23.4 8.4 35 8.9 N 6 7 3 4 1010.0 1009.7 0.0
21/07:30pm 27.7 27.0 7.0 27 11.1 CALM 0 0 0 0 1010.0 1009.7 0.0
21/07:00pm 29.5 28.4 6.8 24 12.2 N 2 6 1 3 1009.6 1009.3 0.0
21/06:30pm 28.8 26.8 6.2 24 12.0 N 6 9 3 5 1009.6 1009.3 0.0
21/06:00pm 28.8 26.2 6.2 24 12.0 NNE 9 15 5 8 1009.5 1009.2 0.0
21/05:30pm 29.6 27.5 5.6 22 12.7 WSW 6 9 3 5 1009.7 1009.4 0.0
21/05:00pm 29.4 27.2 6.1 23 12.4 WSW 7 13 4 7 1009.9 1009.6 0.0
21/04:30pm 29.0 27.2 7.0 25 11.8 WSW 6 15 3 8 1010.0 1009.7 0.0
21/04:00pm 28.8 26.5 7.4 26 11.6 W 9 17 5 9 1010.2 1009.9 0.0
21/03:30pm 28.4 25.9 8.1 28 11.1 NNW 11 17 6 9 1010.7 1010.4 0.0
21/03:00pm 28.0 24.5 7.3 27 11.1 WNW 15 22 8 12 1011.1 1010.8 0.0
21/02:30pm 27.2 24.4 7.1 28 10.7 N 11 20 6 11 1011.3 1011.0 0.0
21/02:00pm 26.8 24.1 5.7 26 11.0 W 9 20 5 11 1011.7 1011.4 0.0
21/01:30pm 25.7 23.4 5.8 28 10.3 WNW 7 15 4 8 1012.0 1011.8 0.0
21/01:00pm 25.2 23.0 7.8 33 9.3 W 9 20 5 11 1012.5 1012.3 0.0
21/12:30pm 24.2 21.9 7.4 34 8.9 SW 9 17 5 9 1013.1 1012.8 0.0
21/12:00pm 23.1 21.2 9.1 41 7.6 W 9 17 5 9 1013.4 1013.1 0.0
21/11:30am 22.7 20.9 9.5 43 7.2 SSW 9 20 5 11 1013.6 1013.3 0.0
21/11:00am 21.6 20.5 10.7 50 6.0 NW 7 15 4 8 1013.8 1013.5 0.0
21/10:30am 21.0 18.9 9.6 48 6.1 W 11 19 6 10 1013.7 1013.4 0.0
21/10:00am 19.2 17.9 11.3 60 4.3 NNE 9 17 5 9 1013.9 1013.6 0.0
21/09:30am 18.8 18.2 11.6 63 4.0 NE 6 13 3 7 1013.8 1013.5 0.0
21/09:00am 17.8 16.8 10.9 64 3.7 ENE 7 11 4 6 1013.8 1013.5 12.8
21/08:30am 17.0 16.3 11.5 70 3.0 ESE 6 7 3 4 1013.9 1013.6 12.8
21/08:00am 16.1 16.2 11.5 74 2.5 NNE 2 6 1 3 1013.9 1013.6 12.6
21/07:30am 14.0 13.8 11.9 87 1.1 WSW 4 9 2 5 1013.5 1013.2 12.6
21/07:00am 12.6 12.3 11.5 93 0.6 SSW 4 6 2 3 1013.3 1013.0 12.6
21/06:30am 11.1 9.1 10.3 95 0.4 SW 11 13 6 7 1013.5 1013.2 12.6
21/06:00am 10.4 8.6 9.5 94 0.5 SW 9 15 5 8 1013.2 1012.9 12.6
21/05:30am 10.1 8.8 9.2 94 0.4 SW 6 9 3 5 1012.4 1012.2 12.6
21/05:00am 11.8 10.7 10.7 93 0.6 SW 7 7 4 4 1012.2 1012.0 12.6
21/04:30am 13.1 12.2 11.5 90 0.9 SW 7 7 4 4 1012.2 1012.0 12.6
21/04:00am 13.5 12.9 11.7 89 1.0 SSW 6 7 3 4 1012.4 1012.2 12.6
21/03:30am 14.1 13.4 12.0 87 1.1 SW 7 11 4 6 1012.5 1012.3 12.6
21/03:00am 15.0 13.2 12.1 83 1.6 SW 13 17 7 9 1012.7 1012.5 12.6
21/02:30am 15.2 14.5 13.2 88 1.1 SW 9 13 5 7 1013.0 1012.7 12.6
21/02:00am 15.2 14.9 13.4 89 1.0 SW 7 9 4 5 1012.7 1012.5 12.6
21/01:30am 14.9 14.3 13.4 91 0.8 SW 9 11 5 6 1013.1 1012.8 12.6
21/01:00am 15.1 15.8 13.5 90 0.9 S 2 7 1 4 1012.9 1012.6 12.6
21/12:30am 15.2 15.2 13.7 91 0.8 S 6 9 3 5 1013.0 1012.7 12.6
21/12:00am 15.7 16.2 13.9 89 1.0 S 4 7 2 4 1012.9 1012.6 12.6
 
Date/Time
CDT
Temp
°C
App
Temp
°C
Dew
Point
Rel
Hum
%
Delta-T
°C
Wind Press
QNH
hPa
Press
MSL
hPa
Rain
since 9 am
mm
Dir
 
Spd
km/h
Gust
km/h
Spd
kts
Gust
kts
20/11:30pm 16.0 16.0 14.2 89 1.0 S 7 9 4 5 1013.0 1012.7 12.6
20/11:00pm 15.9 15.9 14.1 89 1.0 S 7 11 4 6 1013.1 1012.8 12.6
20/10:30pm 16.1 14.9 14.1 88 1.1 S 13 17 7 9 1012.5 1012.3 12.6
20/10:00pm 16.0 13.5 14.0 88 1.1 S 20 30 11 16 1012.5 1012.3 12.6
20/09:30pm 15.9 14.4 14.1 89 1.0 S 15 19 8 10 1011.9 1011.7 12.6
20/09:00pm 16.6 15.5 14.2 86 1.4 S 13 20 7 11 1011.4 1011.1 12.6
20/08:30pm 17.5 15.3 14.4 82 1.8 SW 19 24 10 13 1010.9 1010.6 12.6
20/08:00pm 18.8 16.9 14.3 75 2.6 SW 17 20 9 11 1010.2 1009.9 12.6
20/07:30pm 20.5 18.8 14.8 70 3.4 SW 17 24 9 13 1009.6 1009.3 12.6
20/07:00pm 21.3 19.1 14.5 65 4.0 SW 19 28 10 15 1009.1 1008.8 12.6
20/06:30pm 22.3 20.6 16.3 69 3.7 SW 20 30 11 16 1008.9 1008.6 12.6
20/06:00pm 23.0 20.4 16.8 68 3.8 SW 26 33 14 18 1008.6 1008.3 12.6
20/05:30pm 22.5 22.4 18.7 79 2.4 W 17 28 9 15 1008.2 1007.9 12.6
20/05:00pm 22.9 22.2 19.5 81 2.2 WNW 22 26 12 14 1008.0 1007.7 12.6
20/04:30pm 22.5 22.9 21.0 91 1.0 WNW 20 30 11 16 1007.6 1007.3 12.6
20/04:00pm 21.3 21.7 19.9 92 0.9 WNW 17 22 9 12 1008.0 1007.7 10.4
20/03:30pm 23.6 23.2 20.1 81 2.3 NNW 22 30 12 16 1007.9 1007.6 7.2
20/03:00pm 23.6 22.5 19.5 78 2.6 NNW 24 32 13 17 1008.0 1007.7 7.2
20/02:30pm 22.8 20.7 19.8 83 1.9 NNW 30 37 16 20 1008.4 1008.1 7.2
20/02:00pm 21.6 19.0 19.5 88 1.3 N 32 41 17 22 1008.8 1008.5 7.2
20/01:30pm 20.8 18.0 19.1 90 1.1 NNW 32 41 17 22 1009.6 1009.3 7.2
20/01:00pm 20.5 18.0 18.8 90 1.1 NNW 30 39 16 21 1010.0 1009.7 7.2
20/12:30pm 19.8 17.6 18.8 94 0.6 N 28 37 15 20 1010.4 1010.1 6.2
20/12:00pm 20.3 18.6 19.0 92 0.8 NNW 26 35 14 19 1010.5 1010.2 1.6
20/11:30am 20.4 18.7 18.9 91 0.9 NNW 26 35 14 19 1010.7 1010.4 1.0
20/11:00am 20.4 18.7 18.2 87 1.4 NW 24 33 13 18 1011.1 1010.8 0.4
20/10:30am 21.2 19.9 17.2 78 2.5 NW 20 26 11 14 1010.9 1010.6 0.2

Other Formats:

Comma delimited format used in spreadsheet applications
http://www.bom.gov.au/fwo/IDS60801/IDS60801.95670.axf

JavaScript Object Notation format (JSON) in row-major order
http://www.bom.gov.au/fwo/IDS60801/IDS60801.95670.json